Time;durP1;ratioP1;P1;durP2;ratioP2;P2;SDS_P1;SDS_P2;PMS_P1;PMS_P2;Temp;Humidity;BMP_temperature;BMP_pressure;BME280_temperature;BME280_humidity;BME280_pressure;Samples;Min_cycle;Max_cycle;Signal;HPM_P1;HPM_P2
2022/09/11 00:00:08;;;;;;;;;;;;;;;;;;2131513;27;20360;-44
2022/09/11 00:01:12;;;;;;;;;;;;;;;;;;2131364;27;19927;-46
2022/09/11 00:02:16;;;;;;;;;;;;;;;;;;2131443;27;20430;-46
2022/09/11 00:03:17;;;;;;;;;;;;;;;;;;2132564;27;19923;-44
2022/09/11 00:04:18;;;;;;;;;;;;;;;;;;2133059;27;19923;-43
2022/09/11 00:05:18;;;;;;;;;;;;;;;;;;2132960;27;19927;-44
2022/09/11 00:06:19;;;;;;;;;;;;;;;;;;2132789;27;19923;-44
2022/09/11 00:07:29;;;;;;;;;;;;;;;;;;2133056;27;19941;-44
2022/09/11 00:08:31;;;;;;;;;;;;;;;;;;2132914;27;19923;-44
2022/09/11 00:09:31;;;;;;;;;;;;;;;;;;2132847;27;20283;-44
2022/09/11 00:10:32;;;;;;;;;;;;;;;;;;2132875;27;19923;-44
2022/09/11 00:11:33;;;;;;;;;;;;;;;;;;2132746;27;19934;-44
2022/09/11 00:12:34;;;;;;;;;;;;;;;;;;2132822;27;20338;-44
2022/09/11 00:13:35;;;;;;;;;;;;;;;;;;2133064;27;19923;-44
2022/09/11 00:14:36;;;;;;;;;;;;;;;;;;2132959;27;20014;-44
2022/09/11 00:15:36;;;;;;;;;;;;;;;;;;2132955;27;19931;-44
2022/09/11 00:16:38;;;;;;;;;;;;;;;;;;2132801;27;19923;-45
2022/09/11 00:17:39;;;;;;;;;;;;;;;;;;2132842;27;19931;-44
2022/09/11 00:18:40;;;;;;;;;;;;;;;;;;2132978;27;20306;-44
2022/09/11 00:19:41;;;;;;;;;;;;;;;;;;2132788;27;20161;-44
2022/09/11 00:20:42;;;;;;;;;;;;;;;;;;2132836;27;19923;-44
2022/09/11 00:21:44;;;;;;;;;;;;;;;;;;2132759;27;19923;-44
2022/09/11 00:22:46;;;;;;;;;;;;;;;;;;2132782;27;19923;-44
2022/09/11 00:23:47;;;;;;;;;;;;;;;;;;2132869;27;19923;-46
2022/09/11 00:24:48;;;;;;;;;;;;;;;;;;2132999;27;19923;-44
2022/09/11 00:25:49;;;;;;;;;;;;;;;;;;2132820;27;19927;-44
2022/09/11 00:26:50;;;;;;;;;;;;;;;;;;2132694;27;19927;-45
2022/09/11 00:27:51;;;;;;;;;;;;;;;;;;2132916;27;19949;-44
2022/09/11 00:28:52;;;;;;;;;;;;;;;;;;2132903;27;20026;-45
2022/09/11 00:29:53;;;;;;;;;;;;;;;;;;2132743;27;20380;-44
2022/09/11 00:30:54;;;;;;;;;;;;;;;;;;2132794;27;19977;-45
2022/09/11 00:31:56;;;;;;;;;;;;;;;;;;2132852;27;19929;-45
2022/09/11 00:32:57;;;;;;;;;;;;;;;;;;2132779;27;20295;-45
2022/09/11 00:33:58;;;;;;;;;;;;;;;;;;2132896;27;20020;-44
2022/09/11 00:34:59;;;;;;;;;;;;;;;;;;2132722;27;19927;-45
2022/09/11 00:36:00;;;;;;;;;;;;;;;;;;2132751;27;19923;-48
2022/09/11 00:37:02;;;;;;;;;;;;;;;;;;2132619;27;20014;-45
2022/09/11 00:38:03;;;;;;;;;;;;;;;;;;2132867;27;19922;-45
2022/09/11 00:39:03;;;;;;;;;;;;;;;;;;2132611;27;19968;-44
2022/09/11 00:40:04;;;;;;;;;;;;;;;;;;2132686;27;19923;-45
2022/09/11 00:41:05;;;;;;;;;;;;;;;;;;2132857;27;19937;-46
2022/09/11 00:42:07;;;;;;;;;;;;;;;;;;2132564;27;20421;-45
2022/09/11 00:43:07;;;;;;;;;;;;;;;;;;2132740;27;19923;-44
2022/09/11 00:44:08;;;;;;;;;;;;;;;;;;2132760;27;20400;-47
2022/09/11 00:45:09;;;;;;;;;;;;;;;;;;2132702;27;20076;-45
2022/09/11 00:46:10;;;;;;;;;;;;;;;;;;2132777;27;19927;-45
2022/09/11 00:47:11;;;;;;;;;;;;;;;;;;2132330;27;20303;-43
2022/09/11 00:48:12;;;;;;;;;;;;;;;;;;2132716;27;19923;-44
2022/09/11 00:49:13;;;;;;;;;;;;;;;;;;2132909;27;20058;-43
2022/09/11 00:50:14;;;;;;;;;;;;;;;;;;2132738;27;19923;-43
2022/09/11 00:51:15;;;;;;;;;;;;;;;;;;2132565;27;19976;-44
2022/09/11 00:52:15;;;;;;;;;;;;;;;;;;2132862;27;19923;-44
2022/09/11 00:53:16;;;;;;;;;;;;;;;;;;2132887;27;20372;-42
2022/09/11 00:54:19;;;;;;;;;;;;;;;;;;2132602;27;20364;-42
2022/09/11 00:55:19;;;;;;;;;;;;;;;;;;2132632;27;19923;-44
2022/09/11 00:56:21;;;;;;;;;;;;;;;;;;2132493;27;20313;-44
2022/09/11 00:57:22;;;;;;;;;;;;;;;;;;2132489;27;19946;-44
2022/09/11 00:58:23;;;;;;;;;;;;;;;;;;2132679;27;19923;-44
2022/09/11 00:59:25;;;;;;;;;;;;;;;;;;2132636;27;20368;-44
2022/09/11 01:00:26;;;;;;;;;;;;;;;;;;2132617;27;19923;-45
2022/09/11 01:01:27;;;;;;;;;;;;;;;;;;2132521;27;20401;-46
2022/09/11 01:02:28;;;;;;;;;;;;;;;;;;2132641;27;20007;-46
2022/09/11 01:03:30;;;;;;;;;;;;;;;;;;2132522;27;19927;-46
2022/09/11 01:04:32;;;;;;;;;;;;;;;;;;2132567;27;19923;-46
2022/09/11 01:05:33;;;;;;;;;;;;;;;;;;2132789;27;19943;-46
2022/09/11 01:06:34;;;;;;;;;;;;;;;;;;2132558;27;19923;-46
2022/09/11 01:07:35;;;;;;;;;;;;;;;;;;2132656;27;19931;-45
2022/09/11 01:08:36;;;;;;;;;;;;;;;;;;2132613;27;19923;-46
2022/09/11 01:09:38;;;;;;;;;;;;;;;;;;2132501;27;19923;-45
2022/09/11 01:10:39;;;;;;;;;;;;;;;;;;2132482;27;20443;-46
2022/09/11 01:11:40;;;;;;;;;;;;;;;;;;2132200;27;19926;-46
2022/09/11 01:12:41;;;;;;;;;;;;;;;;;;2132542;27;19930;-46
2022/09/11 01:13:42;;;;;;;;;;;;;;;;;;2132399;27;19923;-44
2022/09/11 01:14:43;;;;;;;;;;;;;;;;;;2131662;27;19977;-45
2022/09/11 01:15:43;;;;;;;;;;;;;;;;;;2132521;27;20053;-45
2022/09/11 01:16:44;;;;;;;;;;;;;;;;;;2132406;27;20386;-46
2022/09/11 01:17:45;;;;;;;;;;;;;;;;;;2132502;27;19923;-46
2022/09/11 01:18:46;;;;;;;;;;;;;;;;;;2132500;27;19970;-45
2022/09/11 01:19:47;;;;;;;;;;;;;;;;;;2132343;27;19968;-44
2022/09/11 01:20:48;;;;;;;;;;;;;;;;;;2132458;27;19931;-44
2022/09/11 01:21:51;;;;;;;;;;;;;;;;;;2132404;27;20048;-44
2022/09/11 01:22:52;;;;;;;;;;;;;;;;;;2132356;27;20414;-44
2022/09/11 01:23:53;;;;;;;;;;;;;;;;;;2132515;27;19923;-45
2022/09/11 01:24:55;;;;;;;;;;;;;;;;;;2132406;27;19927;-44
2022/09/11 01:25:56;;;;;;;;;;;;;;;;;;2132417;27;19923;-44
2022/09/11 01:26:57;;;;;;;;;;;;;;;;;;2132447;27;19923;-44
2022/09/11 01:27:57;;;;;;;;;;;;;;;;;;2132420;27;19923;-45
2022/09/11 01:28:58;;;;;;;;;;;;;;;;;;2132551;27;19923;-42
2022/09/11 01:29:59;;;;;;;;;;;;;;;;;;2132646;27;20390;-42
2022/09/11 01:31:01;;;;;;;;;;;;;;;;;;2132522;27;20380;-42
2022/09/11 01:32:01;;;;;;;;;;;;;;;;;;2132431;27;19930;-43
2022/09/11 01:33:02;;;;;;;;;;;;;;;;;;2132349;27;19930;-42
2022/09/11 01:34:04;;;;;;;;;;;;;;;;;;2132565;27;19923;-43
2022/09/11 01:35:05;;;;;;;;;;;;;;;;;;2132376;27;20360;-42
2022/09/11 01:36:06;;;;;;;;;;;;;;;;;;2132479;27;19923;-45
2022/09/11 01:37:07;;;;;;;;;;;;;;;;;;2132451;27;19930;-45
2022/09/11 01:38:08;;;;;;;;;;;;;;;;;;2132393;27;20365;-44
2022/09/11 01:39:09;;;;;;;;;;;;;;;;;;2132304;27;20025;-44
2022/09/11 01:40:10;;;;;;;;;;;;;;;;;;2132402;27;19950;-45
2022/09/11 01:41:13;;;;;;;;;;;;;;;;;;2132217;27;19931;-44
2022/09/11 01:42:13;;;;;;;;;;;;;;;;;;2132423;27;19930;-44
2022/09/11 01:43:14;;;;;;;;;;;;;;;;;;2132088;27;20398;-45
2022/09/11 01:44:16;;;;;;;;;;;;;;;;;;2132466;27;19971;-44
2022/09/11 01:45:16;;;;;;;;;;;;;;;;;;2132465;27;19927;-43
2022/09/11 01:46:21;;;;;;;;;;;;;;;;;;2132332;27;19923;-42
2022/09/11 01:47:22;;;;;;;;;;;;;;;;;;2132318;27;19923;-42
2022/09/11 01:48:24;;;;;;;;;;;;;;;;;;2132205;27;20372;-43
2022/09/11 01:49:25;;;;;;;;;;;;;;;;;;2132266;27;19923;-42
2022/09/11 01:50:26;;;;;;;;;;;;;;;;;;2132503;27;20471;-43
2022/09/11 01:51:27;;;;;;;;;;;;;;;;;;2132099;27;19997;-43
2022/09/11 01:52:27;;;;;;;;;;;;;;;;;;2132238;27;19923;-43
2022/09/11 01:53:28;;;;;;;;;;;;;;;;;;2132407;27;19930;-43
2022/09/11 01:54:30;;;;;;;;;;;;;;;;;;2132179;27;19934;-43
2022/09/11 01:55:31;;;;;;;;;;;;;;;;;;2132217;27;19923;-43
2022/09/11 01:56:32;;;;;;;;;;;;;;;;;;2132175;27;19923;-43
2022/09/11 01:57:33;;;;;;;;;;;;;;;;;;2132207;27;20013;-43
2022/09/11 01:58:35;;;;;;;;;;;;;;;;;;2132199;27;19962;-43
2022/09/11 01:59:36;;;;;;;;;;;;;;;;;;2132092;27;19923;-43
2022/09/11 02:00:37;;;;;;;;;;;;;;;;;;2132264;27;19923;-43
2022/09/11 02:01:38;;;;;;;;;;;;;;;;;;2132119;27;19958;-44
2022/09/11 02:02:38;;;;;;;;;;;;;;;;;;2132257;27;19930;-45
2022/09/11 02:03:40;;;;;;;;;;;;;;;;;;2132325;27;19927;-43
2022/09/11 02:04:40;;;;;;;;;;;;;;;;;;2132254;27;19923;-44
2022/09/11 02:05:42;;;;;;;;;;;;;;;;;;2132164;27;20371;-44
2022/09/11 02:06:43;;;;;;;;;;;;;;;;;;2132014;27;20288;-43
2022/09/11 02:07:44;;;;;;;;;;;;;;;;;;2132151;27;20025;-44
2022/09/11 02:08:46;;;;;;;;;;;;;;;;;;2132253;27;19923;-44
2022/09/11 02:09:46;;;;;;;;;;;;;;;;;;2132150;27;19975;-43
2022/09/11 02:10:47;;;;;;;;;;;;;;;;;;2132170;27;19923;-43
2022/09/11 02:11:48;;;;;;;;;;;;;;;;;;2131916;27;20051;-44
2022/09/11 02:12:49;;;;;;;;;;;;;;;;;;2132112;27;19930;-43
2022/09/11 02:13:50;;;;;;;;;;;;;;;;;;2132090;27;19923;-44
2022/09/11 02:14:52;;;;;;;;;;;;;;;;;;2132174;27;19923;-44
2022/09/11 02:15:53;;;;;;;;;;;;;;;;;;2132192;27;19923;-44
2022/09/11 02:16:53;;;;;;;;;;;;;;;;;;2131993;27;20015;-45
2022/09/11 02:17:54;;;;;;;;;;;;;;;;;;2132166;27;19979;-44
2022/09/11 02:18:55;;;;;;;;;;;;;;;;;;2132208;27;19923;-44
2022/09/11 02:19:56;;;;;;;;;;;;;;;;;;2132159;27;20424;-45
2022/09/11 02:20:57;;;;;;;;;;;;;;;;;;2132052;27;19962;-45
2022/09/11 02:21:58;;;;;;;;;;;;;;;;;;2132090;27;20047;-44
2022/09/11 02:22:58;;;;;;;;;;;;;;;;;;2132048;27;19968;-44
2022/09/11 02:23:59;;;;;;;;;;;;;;;;;;2132018;27;20372;-45
2022/09/11 02:25:01;;;;;;;;;;;;;;;;;;2131931;27;20022;-45
2022/09/11 02:26:02;;;;;;;;;;;;;;;;;;2131498;27;20368;-45
2022/09/11 02:27:03;;;;;;;;;;;;;;;;;;2131231;27;19930;-44
2022/09/11 02:28:04;;;;;;;;;;;;;;;;;;2131964;27;19923;-44
2022/09/11 02:29:05;;;;;;;;;;;;;;;;;;2132133;27;19952;-45
2022/09/11 02:30:06;;;;;;;;;;;;;;;;;;2132005;27;19923;-43
2022/09/11 02:31:06;;;;;;;;;;;;;;;;;;2132127;27;19930;-45
2022/09/11 02:32:10;;;;;;;;;;;;;;;;;;2131924;27;20357;-45
2022/09/11 02:33:10;;;;;;;;;;;;;;;;;;2132117;27;19927;-45
2022/09/11 02:34:11;;;;;;;;;;;;;;;;;;2131975;27;19930;-47
2022/09/11 02:35:13;;;;;;;;;;;;;;;;;;2132165;27;19929;-44
2022/09/11 02:36:14;;;;;;;;;;;;;;;;;;2131934;27;19967;-44
2022/09/11 02:37:15;;;;;;;;;;;;;;;;;;2132010;27;20333;-44
2022/09/11 02:38:16;;;;;;;;;;;;;;;;;;2132105;27;20013;-46
2022/09/11 02:39:17;;;;;;;;;;;;;;;;;;2131834;27;19927;-44
2022/09/11 02:40:18;;;;;;;;;;;;;;;;;;2131958;27;19923;-44
2022/09/11 02:41:20;;;;;;;;;;;;;;;;;;2131895;27;19927;-46
2022/09/11 02:42:21;;;;;;;;;;;;;;;;;;2132088;27;19923;-45
2022/09/11 02:43:22;;;;;;;;;;;;;;;;;;2131929;27;19923;-45
2022/09/11 02:44:22;;;;;;;;;;;;;;;;;;2131803;27;19968;-46
2022/09/11 02:45:23;;;;;;;;;;;;;;;;;;2131079;27;19923;-46
2022/09/11 02:46:24;;;;;;;;;;;;;;;;;;2131137;27;20379;-46
2022/09/11 02:47:25;;;;;;;;;;;;;;;;;;2131521;27;19923;-45
2022/09/11 02:48:26;;;;;;;;;;;;;;;;;;2132077;27;19938;-46
2022/09/11 02:49:27;;;;;;;;;;;;;;;;;;2131978;27;19929;-45
2022/09/11 02:50:28;;;;;;;;;;;;;;;;;;2131918;27;19946;-45
2022/09/11 02:51:30;;;;;;;;;;;;;;;;;;2131975;27;20049;-46
2022/09/11 02:52:31;;;;;;;;;;;;;;;;;;2131890;27;20317;-45
2022/09/11 02:53:32;;;;;;;;;;;;;;;;;;2131954;27;19923;-45
2022/09/11 02:54:33;;;;;;;;;;;;;;;;;;2131871;27;19962;-46
2022/09/11 02:55:34;;;;;;;;;;;;;;;;;;2131836;27;20431;-46
2022/09/11 02:56:35;;;;;;;;;;;;;;;;;;2131855;27;19923;-45
2022/09/11 02:57:36;;;;;;;;;;;;;;;;;;2131935;27;20320;-45
2022/09/11 02:58:37;;;;;;;;;;;;;;;;;;2132038;27;19974;-45
2022/09/11 02:59:38;;;;;;;;;;;;;;;;;;2131933;27;19923;-46
2022/09/11 03:00:38;;;;;;;;;;;;;;;;;;2131908;27;20025;-45
2022/09/11 03:01:39;;;;;;;;;;;;;;;;;;2131762;27;19923;-45
2022/09/11 03:02:40;;;;;;;;;;;;;;;;;;2131913;27;19927;-46
2022/09/11 03:03:41;;;;;;;;;;;;;;;;;;2131772;27;20084;-45
2022/09/11 03:04:42;;;;;;;;;;;;;;;;;;2131712;27;20425;-46
2022/09/11 03:05:43;;;;;;;;;;;;;;;;;;2131884;27;19958;-45
2022/09/11 03:06:43;;;;;;;;;;;;;;;;;;2131932;27;19923;-45
2022/09/11 03:07:44;;;;;;;;;;;;;;;;;;2131743;27;19923;-45
2022/09/11 03:08:45;;;;;;;;;;;;;;;;;;2131705;27;19923;-45
2022/09/11 03:09:46;;;;;;;;;;;;;;;;;;2131872;27;19923;-46
2022/09/11 03:10:48;;;;;;;;;;;;;;;;;;2131943;27;19962;-46
2022/09/11 03:11:49;;;;;;;;;;;;;;;;;;2124745;27;20292;-44
2022/09/11 03:12:50;;;;;;;;;;;;;;;;;;2123182;28;19923;-43
2022/09/11 03:13:51;;;;;;;;;;;;;;;;;;2123198;28;19970;-44
2022/09/11 03:14:52;;;;;;;;;;;;;;;;;;2123240;28;20391;-44
2022/09/11 03:15:53;;;;;;;;;;;;;;;;;;2123154;28;20031;-43
2022/09/11 03:16:55;;;;;;;;;;;;;;;;;;2123117;27;20443;-44
2022/09/11 03:17:57;;;;;;;;;;;;;;;;;;2123321;28;19924;-44
2022/09/11 03:18:58;;;;;;;;;;;;;;;;;;2123441;28;19923;-46
2022/09/11 03:19:58;;;;;;;;;;;;;;;;;;2123053;28;19923;-46
2022/09/11 03:20:59;;;;;;;;;;;;;;;;;;2123278;28;20268;-45
2022/09/11 03:22:01;;;;;;;;;;;;;;;;;;2123120;27;19923;-46
2022/09/11 03:23:08;;;;;;;;;;;;;;;;;;2123154;28;20269;-45
2022/09/11 03:24:09;;;;;;;;;;;;;;;;;;2123141;28;19923;-46
2022/09/11 03:25:10;;;;;;;;;;;;;;;;;;2123310;28;19931;-45
2022/09/11 03:26:11;;;;;;;;;;;;;;;;;;2123173;28;19923;-46
2022/09/11 03:27:12;;;;;;;;;;;;;;;;;;2123012;27;19930;-46
2022/09/11 03:28:13;;;;;;;;;;;;;;;;;;2123095;28;19976;-46
2022/09/11 03:29:13;;;;;;;;;;;;;;;;;;2123195;28;19924;-46
2022/09/11 03:30:14;;;;;;;;;;;;;;;;;;2123092;28;20380;-46
2022/09/11 03:31:15;;;;;;;;;;;;;;;;;;2123000;27;19923;-47
2022/09/11 03:32:16;;;;;;;;;;;;;;;;;;2123076;28;20442;-47
2022/09/11 03:33:17;;;;;;;;;;;;;;;;;;2123055;28;20368;-45
2022/09/11 03:34:18;;;;;;;;;;;;;;;;;;2131071;27;19929;-46
2022/09/11 03:35:19;;;;;;;;;;;;;;;;;;2131654;27;19938;-44
2022/09/11 03:36:21;;;;;;;;;;;;;;;;;;2131709;27;19923;-43
2022/09/11 03:37:22;;;;;;;;;;;;;;;;;;2131880;27;19930;-46
2022/09/11 03:38:23;;;;;;;;;;;;;;;;;;2132813;27;19946;-45
2022/09/11 03:39:23;;;;;;;;;;;;;;;;;;2133216;27;20364;-46
2022/09/11 03:40:24;;;;;;;;;;;;;;;;;;2133288;27;20332;-46
2022/09/11 03:41:25;;;;;;;;;;;;;;;;;;2133234;27;20313;-45
2022/09/11 03:42:26;;;;;;;;;;;;;;;;;;2133038;27;20025;-46
2022/09/11 03:43:27;;;;;;;;;;;;;;;;;;2133102;27;20407;-45
2022/09/11 03:44:28;;;;;;;;;;;;;;;;;;2133302;27;19923;-47
2022/09/11 03:45:29;;;;;;;;;;;;;;;;;;2133314;27;19927;-42
2022/09/11 03:46:31;;;;;;;;;;;;;;;;;;2132980;27;19923;-42
2022/09/11 03:47:32;;;;;;;;;;;;;;;;;;2133176;27;19984;-41
2022/09/11 03:48:33;;;;;;;;;;;;;;;;;;2132991;27;19930;-42
2022/09/11 03:49:34;;;;;;;;;;;;;;;;;;2133571;27;19923;-42
2022/09/11 03:50:35;;;;;;;;;;;;;;;;;;2133259;27;20313;-45
2022/09/11 03:51:36;;;;;;;;;;;;;;;;;;2133112;27;19930;-44
2022/09/11 03:52:37;;;;;;;;;;;;;;;;;;2133180;27;19923;-46
2022/09/11 03:53:38;;;;;;;;;;;;;;;;;;2133187;27;19923;-45
2022/09/11 03:54:39;;;;;;;;;;;;;;;;;;2133049;27;19927;-44
2022/09/11 03:55:40;;;;;;;;;;;;;;;;;;2133046;27;19931;-44
2022/09/11 03:56:42;;;;;;;;;;;;;;;;;;2132920;27;20016;-45
2022/09/11 03:57:42;;;;;;;;;;;;;;;;;;2133024;27;19927;-49
2022/09/11 03:58:43;;;;;;;;;;;;;;;;;;2132925;27;20376;-44
2022/09/11 03:59:44;;;;;;;;;;;;;;;;;;2133000;27;19930;-45
2022/09/11 04:00:46;;;;;;;;;;;;;;;;;;2133014;27;19929;-46
2022/09/11 04:01:49;;;;;;;;;;;;;;;;;;2132900;27;20333;-45
2022/09/11 04:02:50;;;;;;;;;;;;;;;;;;2133089;27;20388;-45
2022/09/11 04:03:51;;;;;;;;;;;;;;;;;;2133332;27;20391;-42
2022/09/11 04:04:52;;;;;;;;;;;;;;;;;;2133153;27;19923;-42
2022/09/11 04:05:53;;;;;;;;;;;;;;;;;;2132975;27;20076;-42
2022/09/11 04:06:54;;;;;;;;;;;;;;;;;;2133087;27;19930;-45
2022/09/11 04:07:55;;;;;;;;;;;;;;;;;;2133295;27;19927;-44
2022/09/11 04:08:56;;;;;;;;;;;;;;;;;;2133034;27;20398;-45
2022/09/11 04:09:57;;;;;;;;;;;;;;;;;;2133054;27;19923;-45
2022/09/11 04:10:57;;;;;;;;;;;;;;;;;;2133004;27;19929;-45
2022/09/11 04:11:58;;;;;;;;;;;;;;;;;;2132736;27;20272;-45
2022/09/11 04:13:00;;;;;;;;;;;;;;;;;;2133285;27;19923;-41
2022/09/11 04:14:01;;;;;;;;;;;;;;;;;;2132866;27;19927;-41
2022/09/11 04:15:02;;;;;;;;;;;;;;;;;;2133035;27;20335;-42
2022/09/11 04:16:03;;;;;;;;;;;;;;;;;;2132833;27;19930;-42
2022/09/11 04:17:05;;;;;;;;;;;;;;;;;;2132850;27;19923;-41
2022/09/11 04:18:05;;;;;;;;;;;;;;;;;;2133042;27;19923;-46
2022/09/11 04:19:06;;;;;;;;;;;;;;;;;;2132843;27;19952;-45
2022/09/11 04:20:07;;;;;;;;;;;;;;;;;;2132486;27;19939;-44
2022/09/11 04:21:08;;;;;;;;;;;;;;;;;;2133022;27;19923;-45
2022/09/11 04:22:09;;;;;;;;;;;;;;;;;;2133088;27;19929;-45
2022/09/11 04:23:10;;;;;;;;;;;;;;;;;;2132968;27;20413;-46
2022/09/11 04:24:11;;;;;;;;;;;;;;;;;;2133178;27;20359;-41
2022/09/11 04:25:11;;;;;;;;;;;;;;;;;;2132782;27;19984;-41
2022/09/11 04:26:14;;;;;;;;;;;;;;;;;;2132966;27;19930;-42
2022/09/11 04:27:15;;;;;;;;;;;;;;;;;;2132810;27;19934;-42
2022/09/11 04:28:16;;;;;;;;;;;;;;;;;;2132865;27;19970;-42
2022/09/11 04:29:17;;;;;;;;;;;;;;;;;;2132817;27;19945;-42
2022/09/11 04:30:18;;;;;;;;;;;;;;;;;;2132780;27;20017;-42
2022/09/11 04:31:19;;;;;;;;;;;;;;;;;;2132432;27;19923;-42
2022/09/11 04:32:21;;;;;;;;;;;;;;;;;;2132910;27;19927;-42
2022/09/11 04:33:21;;;;;;;;;;;;;;;;;;2132937;27;19923;-42
2022/09/11 04:34:22;;;;;;;;;;;;;;;;;;2132735;27;20023;-42
2022/09/11 04:35:23;;;;;;;;;;;;;;;;;;2132768;27;20000;-42
2022/09/11 04:36:25;;;;;;;;;;;;;;;;;;2132674;27;19923;-41
2022/09/11 04:37:26;;;;;;;;;;;;;;;;;;2132722;27;19923;-42
2022/09/11 04:38:28;;;;;;;;;;;;;;;;;;2132742;27;19930;-42
2022/09/11 04:39:29;;;;;;;;;;;;;;;;;;2132671;27;19923;-41
2022/09/11 04:40:30;;;;;;;;;;;;;;;;;;2132957;27;19923;-46
2022/09/11 04:41:31;;;;;;;;;;;;;;;;;;2132684;27;20260;-45
2022/09/11 04:42:32;;;;;;;;;;;;;;;;;;2132876;27;19954;-45
2022/09/11 04:43:33;;;;;;;;;;;;;;;;;;2132713;27;20291;-45
2022/09/11 04:44:34;;;;;;;;;;;;;;;;;;2132749;27;19923;-46
2022/09/11 04:45:35;;;;;;;;;;;;;;;;;;2132848;27;19973;-41
2022/09/11 04:46:36;;;;;;;;;;;;;;;;;;2132794;27;19923;-42
2022/09/11 04:47:36;;;;;;;;;;;;;;;;;;2132666;27;19930;-42
2022/09/11 04:48:38;;;;;;;;;;;;;;;;;;2132770;27;19977;-41
2022/09/11 04:49:39;;;;;;;;;;;;;;;;;;2132026;27;19927;-42
2022/09/11 04:50:40;;;;;;;;;;;;;;;;;;2132692;27;19927;-42
2022/09/11 04:51:41;;;;;;;;;;;;;;;;;;2132524;27;19930;-41
2022/09/11 04:52:42;;;;;;;;;;;;;;;;;;2132616;27;19955;-41
2022/09/11 04:53:42;;;;;;;;;;;;;;;;;;2132572;27;19931;-41
2022/09/11 04:54:45;;;;;;;;;;;;;;;;;;2132749;27;20360;-41
2022/09/11 04:55:45;;;;;;;;;;;;;;;;;;2132614;27;19923;-41
2022/09/11 04:56:47;;;;;;;;;;;;;;;;;;2132550;27;19923;-42
2022/09/11 04:57:48;;;;;;;;;;;;;;;;;;2132592;27;20288;-42
2022/09/11 04:58:49;;;;;;;;;;;;;;;;;;2132589;27;19955;-41
2022/09/11 04:59:50;;;;;;;;;;;;;;;;;;2132653;27;20387;-41
2022/09/11 05:00:51;;;;;;;;;;;;;;;;;;2132720;27;19923;-42
2022/09/11 05:01:53;;;;;;;;;;;;;;;;;;2132726;27;19927;-42
2022/09/11 05:02:54;;;;;;;;;;;;;;;;;;2132664;27;19923;-42
2022/09/11 05:03:55;;;;;;;;;;;;;;;;;;2132881;27;19990;-41
2022/09/11 05:04:57;;;;;;;;;;;;;;;;;;2132582;27;20047;-42
2022/09/11 05:05:58;;;;;;;;;;;;;;;;;;2132606;27;19923;-42
2022/09/11 05:06:59;;;;;;;;;;;;;;;;;;2132845;27;19937;-42
2022/09/11 05:08:00;;;;;;;;;;;;;;;;;;2132516;27;19927;-42
2022/09/11 05:09:01;;;;;;;;;;;;;;;;;;2132505;27;19923;-42
2022/09/11 05:10:02;;;;;;;;;;;;;;;;;;2132662;27;20376;-41
2022/09/11 05:11:04;;;;;;;;;;;;;;;;;;2132313;27;19923;-42
2022/09/11 05:12:05;;;;;;;;;;;;;;;;;;2132467;27;19923;-41
2022/09/11 05:13:06;;;;;;;;;;;;;;;;;;2133089;27;19927;-44
2022/09/11 05:14:07;;;;;;;;;;;;;;;;;;2132491;27;19931;-45
2022/09/11 05:15:09;;;;;;;;;;;;;;;;;;2132549;27;19923;-45
2022/09/11 05:16:09;;;;;;;;;;;;;;;;;;2132669;27;19949;-44
2022/09/11 05:17:12;;;;;;;;;;;;;;;;;;2132763;27;19949;-44
2022/09/11 05:18:13;;;;;;;;;;;;;;;;;;2132671;27;19923;-45
2022/09/11 05:19:14;;;;;;;;;;;;;;;;;;2132407;27;19923;-45
2022/09/11 05:20:15;;;;;;;;;;;;;;;;;;2132546;27;20470;-45
2022/09/11 05:21:16;;;;;;;;;;;;;;;;;;2132559;27;20332;-43
2022/09/11 05:22:17;;;;;;;;;;;;;;;;;;2132615;27;19923;-46
2022/09/11 05:23:19;;;;;;;;;;;;;;;;;;2132629;27;19923;-42
2022/09/11 05:24:19;;;;;;;;;;;;;;;;;;2132462;27;20435;-41
2022/09/11 05:25:20;;;;;;;;;;;;;;;;;;2132392;27;19959;-42
2022/09/11 05:26:21;;;;;;;;;;;;;;;;;;2132696;27;19923;-45
2022/09/11 05:27:22;;;;;;;;;;;;;;;;;;2132508;27;19923;-45
2022/09/11 05:28:23;;;;;;;;;;;;;;;;;;2132361;27;20372;-45
2022/09/11 05:29:25;;;;;;;;;;;;;;;;;;2132372;27;19966;-44
2022/09/11 05:30:29;;;;;;;;;;;;;;;;;;2132394;27;19930;-45
2022/09/11 05:31:31;;;;;;;;;;;;;;;;;;2132525;27;19935;-46
2022/09/11 05:32:31;;;;;;;;;;;;;;;;;;2132597;27;20414;-41
2022/09/11 05:33:32;;;;;;;;;;;;;;;;;;2132526;27;20020;-41
2022/09/11 05:34:33;;;;;;;;;;;;;;;;;;2132664;27;19999;-42
2022/09/11 05:35:34;;;;;;;;;;;;;;;;;;2132553;27;20015;-42
2022/09/11 05:36:35;;;;;;;;;;;;;;;;;;2132290;27;19923;-42
2022/09/11 05:37:36;;;;;;;;;;;;;;;;;;2132361;27;20308;-42
2022/09/11 05:38:37;;;;;;;;;;;;;;;;;;2132632;27;20345;-45
2022/09/11 05:39:38;;;;;;;;;;;;;;;;;;2132286;27;19964;-45
2022/09/11 05:40:39;;;;;;;;;;;;;;;;;;2132426;27;19931;-44
2022/09/11 05:41:40;;;;;;;;;;;;;;;;;;2132491;27;19981;-41
2022/09/11 05:42:41;;;;;;;;;;;;;;;;;;2132572;27;20064;-41
2022/09/11 05:43:41;;;;;;;;;;;;;;;;;;2132348;27;19930;-41
2022/09/11 05:44:42;;;;;;;;;;;;;;;;;;2132499;27;19927;-41
2022/09/11 05:45:44;;;;;;;;;;;;;;;;;;2132298;27;19968;-41
2022/09/11 05:46:45;;;;;;;;;;;;;;;;;;2132403;27;19923;-41
2022/09/11 05:47:46;;;;;;;;;;;;;;;;;;2132500;27;20007;-41
2022/09/11 05:48:47;;;;;;;;;;;;;;;;;;2132469;27;20395;-41
2022/09/11 05:49:48;;;;;;;;;;;;;;;;;;2132287;27;20403;-41
2022/09/11 05:50:49;;;;;;;;;;;;;;;;;;2132494;27;20368;-41
2022/09/11 05:51:50;;;;;;;;;;;;;;;;;;2132339;27;19927;-41
2022/09/11 05:52:50;;;;;;;;;;;;;;;;;;2132244;27;20284;-41
2022/09/11 05:53:51;;;;;;;;;;;;;;;;;;2132400;27;19923;-41
2022/09/11 05:54:53;;;;;;;;;;;;;;;;;;2132617;27;19923;-45
2022/09/11 05:55:54;;;;;;;;;;;;;;;;;;2132240;27;19923;-44
2022/09/11 05:56:54;;;;;;;;;;;;;;;;;;2132405;27;19938;-42
2022/09/11 05:57:55;;;;;;;;;;;;;;;;;;2132315;27;19929;-41
2022/09/11 05:58:56;;;;;;;;;;;;;;;;;;2132203;27;20017;-41
2022/09/11 05:59:57;;;;;;;;;;;;;;;;;;2132309;27;20138;-41
2022/09/11 06:00:58;;;;;;;;;;;;;;;;;;2131904;27;19924;-41
2022/09/11 06:02:01;;;;;;;;;;;;;;;;;;2132151;27;19933;-43
2022/09/11 06:03:02;;;;;;;;;;;;;;;;;;2132528;27;19936;-41
2022/09/11 06:04:03;;;;;;;;;;;;;;;;;;2132191;27;19993;-41
2022/09/11 06:05:04;;;;;;;;;;;;;;;;;;2132299;27;19930;-41
2022/09/11 06:06:05;;;;;;;;;;;;;;;;;;2132189;27;20362;-41
2022/09/11 06:07:05;;;;;;;;;;;;;;;;;;2132067;27;19930;-41
2022/09/11 06:08:06;;;;;;;;;;;;;;;;;;2132631;27;19923;-43
2022/09/11 06:09:07;;;;;;;;;;;;;;;;;;2132126;27;19958;-43
2022/09/11 06:10:08;;;;;;;;;;;;;;;;;;2132066;27;20433;-44
2022/09/11 06:11:09;;;;;;;;;;;;;;;;;;2132229;27;19966;-42
2022/09/11 06:12:11;;;;;;;;;;;;;;;;;;2132234;27;20028;-42
2022/09/11 06:13:11;;;;;;;;;;;;;;;;;;2132070;27;19930;-42
2022/09/11 06:14:12;;;;;;;;;;;;;;;;;;2132178;27;20369;-41
2022/09/11 06:15:13;;;;;;;;;;;;;;;;;;2132135;27;19923;-41
2022/09/11 06:16:34;;;;;;;;;;;;;;;;;;2132160;27;19968;-42
2022/09/11 06:17:35;;;;;;;;;;;;;;;;;;2132514;27;19929;-44
2022/09/11 06:18:36;;;;;;;;;;;;;;;;;;2132050;27;19923;-44
2022/09/11 06:19:36;;;;;;;;;;;;;;;;;;2132074;27;19923;-43
2022/09/11 06:20:38;;;;;;;;;;;;;;;;;;2132231;27;19923;-43
2022/09/11 06:21:39;;;;;;;;;;;;;;;;;;2132177;27;19923;-42
2022/09/11 06:22:40;;;;;;;;;;;;;;;;;;2131975;27;20312;-42
2022/09/11 06:23:41;;;;;;;;;;;;;;;;;;2132198;27;19933;-42
2022/09/11 06:24:42;;;;;;;;;;;;;;;;;;2132034;27;19927;-42
2022/09/11 06:25:43;;;;;;;;;;;;;;;;;;2132182;27;20289;-42
2022/09/11 06:26:45;;;;;;;;;;;;;;;;;;2131950;27;19923;-42
2022/09/11 06:27:46;;;;;;;;;;;;;;;;;;2132377;27;19927;-44
2022/09/11 06:28:47;;;;;;;;;;;;;;;;;;2132031;27;19927;-45
2022/09/11 06:29:48;;;;;;;;;;;;;;;;;;2132366;27;19937;-43
2022/09/11 06:30:49;;;;;;;;;;;;;;;;;;2132222;27;19927;-43
2022/09/11 06:31:50;;;;;;;;;;;;;;;;;;2132166;27;20264;-42
2022/09/11 06:32:51;;;;;;;;;;;;;;;;;;2132156;27;19927;-42
2022/09/11 06:33:52;;;;;;;;;;;;;;;;;;2131932;27;20368;-42
2022/09/11 06:34:53;;;;;;;;;;;;;;;;;;2131936;27;19923;-42
2022/09/11 06:35:54;;;;;;;;;;;;;;;;;;2132179;27;20399;-42
2022/09/11 06:36:54;;;;;;;;;;;;;;;;;;2132003;27;19937;-42
2022/09/11 06:37:55;;;;;;;;;;;;;;;;;;2131912;27;20314;-42
2022/09/11 06:38:56;;;;;;;;;;;;;;;;;;2132208;27;19923;-42
2022/09/11 06:39:57;;;;;;;;;;;;;;;;;;2132024;27;19923;-42
2022/09/11 06:40:58;;;;;;;;;;;;;;;;;;2131984;27;20019;-42
2022/09/11 06:41:59;;;;;;;;;;;;;;;;;;2131853;27;19931;-42
2022/09/11 06:43:00;;;;;;;;;;;;;;;;;;2131919;27;19927;-42
2022/09/11 06:44:01;;;;;;;;;;;;;;;;;;2131926;27;19977;-42
2022/09/11 06:45:02;;;;;;;;;;;;;;;;;;2131913;27;19975;-42
2022/09/11 06:46:03;;;;;;;;;;;;;;;;;;2131882;27;19923;-43
2022/09/11 06:47:04;;;;;;;;;;;;;;;;;;2132418;27;19962;-42
2022/09/11 06:48:05;;;;;;;;;;;;;;;;;;2132156;27;19923;-45
2022/09/11 06:49:06;;;;;;;;;;;;;;;;;;2131810;27;19925;-44
2022/09/11 06:50:06;;;;;;;;;;;;;;;;;;2131834;27;19960;-44
2022/09/11 06:51:07;;;;;;;;;;;;;;;;;;2131879;27;20368;-45
2022/09/11 06:52:08;;;;;;;;;;;;;;;;;;2131792;27;19970;-44
2022/09/11 06:53:09;;;;;;;;;;;;;;;;;;2131920;27;19995;-45
2022/09/11 06:54:10;;;;;;;;;;;;;;;;;;2131863;27;19930;-45
2022/09/11 06:55:13;;;;;;;;;;;;;;;;;;2131888;27;19930;-44
2022/09/11 06:56:14;;;;;;;;;;;;;;;;;;2131936;27;20287;-44
2022/09/11 06:57:14;;;;;;;;;;;;;;;;;;2131852;27;19923;-44